Time,TemperatureF,DewpointF,PressureIn,WindDirection,WindDirectionDegrees,WindSpeedMPH,WindSpeedGustMPH,Humidity,HourlyPrecipIn,Conditions,Clouds,dailyrainin,SoftwareType,DateUTC
2013-03-31 00:00:00,41.7,37.6,30.11,South,190,0.0,0.0,85,0.00,,,0.00,meteohub,2013-03-31 04:00:00,
2013-03-31 00:04:00,41.7,37.6,30.11,South,190,0.0,0.0,85,0.00,,,0.00,meteohub,2013-03-31 04:04:00,
2013-03-31 00:07:00,41.5,37.4,30.11,South,190,0.0,0.0,85,0.00,,,0.00,meteohub,2013-03-31 04:07:00,
2013-03-31 00:12:00,41.5,37.4,30.11,South,190,0.0,0.0,85,0.00,,,0.00,meteohub,2013-03-31 04:12:00,
2013-03-31 00:17:00,41.5,37.6,30.11,South,190,0.0,0.0,86,0.00,,,0.00,meteohub,2013-03-31 04:17:00,
2013-03-31 00:22:00,41.4,37.6,30.11,South,190,0.0,0.0,86,0.00,,,0.00,meteohub,2013-03-31 04:22:00,
2013-03-31 00:27:00,41.4,37.6,30.11,South,190,0.0,0.0,86,0.00,,,0.00,meteohub,2013-03-31 04:27:00,
2013-03-31 00:32:00,41.4,37.6,30.11,South,190,0.0,0.0,86,0.00,,,0.00,meteohub,2013-03-31 04:32:00,
2013-03-31 00:38:00,41.2,37.4,30.11,South,190,0.0,0.0,86,0.00,,,0.00,meteohub,2013-03-31 04:38:00,
2013-03-31 00:43:00,41.2,37.4,30.11,South,190,0.0,0.0,86,0.00,,,0.00,meteohub,2013-03-31 04:43:00,
2013-03-31 00:48:00,41.0,37.2,30.11,South,190,0.0,0.0,86,0.00,,,0.00,meteohub,2013-03-31 04:48:00,
2013-03-31 00:53:00,40.8,37.0,30.11,South,190,0.0,0.0,86,0.00,,,0.00,meteohub,2013-03-31 04:53:00,
2013-03-31 00:58:00,40.8,36.7,30.11,South,190,0.0,0.0,85,0.00,,,0.00,meteohub,2013-03-31 04:58:00,
2013-03-31 01:04:00,40.6,36.9,30.11,South,190,0.0,0.0,86,0.00,,,0.00,meteohub,2013-03-31 05:04:00,
2013-03-31 01:09:00,40.6,36.9,30.10,South,190,0.0,0.0,86,0.00,,,0.00,meteohub,2013-03-31 05:09:00,
2013-03-31 01:15:00,40.5,36.7,30.10,South,190,0.0,0.0,86,0.00,,,0.00,meteohub,2013-03-31 05:15:00,
2013-03-31 01:20:00,40.5,36.7,30.10,South,191,0.0,0.0,86,0.00,,,0.00,meteohub,2013-03-31 05:20:00,
2013-03-31 01:25:00,40.5,36.7,30.11,South,188,0.0,0.0,86,0.00,,,0.00,meteohub,2013-03-31 05:25:00,
2013-03-31 01:30:00,40.5,36.3,30.10,South,190,0.0,0.0,85,0.00,,,0.00,meteohub,2013-03-31 05:30:00,
2013-03-31 01:35:00,40.6,36.1,30.10,South,190,0.0,0.0,84,0.00,,,0.00,meteohub,2013-03-31 05:35:00,
2013-03-31 01:40:00,40.8,35.8,30.10,South,191,0.0,0.0,82,0.00,,,0.00,meteohub,2013-03-31 05:40:00,
2013-03-31 01:46:00,40.8,35.4,30.10,South,191,0.0,0.0,81,0.00,,,0.00,meteohub,2013-03-31 05:46:00,
2013-03-31 01:51:00,41.2,34.5,30.10,South,188,0.0,0.0,77,0.00,,,0.00,meteohub,2013-03-31 05:51:00,
2013-03-31 01:56:00,42.1,32.7,30.11,SSE,166,1.0,0.0,69,0.00,,,0.00,meteohub,2013-03-31 05:56:00,
2013-03-31 02:01:00,43.2,31.5,30.10,SSW,194,1.0,2.0,63,0.00,,,0.00,meteohub,2013-03-31 06:01:00,
2013-03-31 02:07:00,43.9,30.9,30.11,WNW,293,2.0,2.0,60,0.00,,,0.00,meteohub,2013-03-31 06:07:00,
2013-03-31 02:12:00,44.4,30.2,30.11,SSE,160,1.0,2.0,57,0.00,,,0.00,meteohub,2013-03-31 06:12:00,
2013-03-31 02:17:00,45.1,30.4,30.11,East,93,4.0,4.0,56,0.00,,,0.00,meteohub,2013-03-31 06:17:00,
2013-03-31 02:22:00,45.7,30.4,30.10,SSE,165,1.0,2.0,55,0.00,,,0.00,meteohub,2013-03-31 06:22:00,
2013-03-31 02:27:00,45.9,30.2,30.10,SSW,208,1.0,4.0,54,0.00,,,0.00,meteohub,2013-03-31 06:27:00,
2013-03-31 02:32:00,46.0,30.4,30.10,SSE,148,3.0,4.0,54,0.00,,,0.00,meteohub,2013-03-31 06:32:00,
2013-03-31 02:37:00,46.2,30.6,30.11,South,176,2.0,4.0,54,0.00,,,0.00,meteohub,2013-03-31 06:37:00,
2013-03-31 02:43:00,46.2,30.6,30.10,SSE,156,2.0,4.0,54,0.00,,,0.00,meteohub,2013-03-31 06:43:00,
2013-03-31 02:48:00,46.2,30.6,30.10,South,178,0.0,4.0,54,0.00,,,0.00,meteohub,2013-03-31 06:48:00,
2013-03-31 02:53:00,46.2,30.9,30.10,South,191,1.0,4.0,55,0.00,,,0.00,meteohub,2013-03-31 06:53:00,
2013-03-31 02:59:00,46.2,30.9,30.10,SE,134,2.0,4.0,55,0.00,,,0.00,meteohub,2013-03-31 06:59:00,
2013-03-31 03:04:00,46.0,30.7,30.10,SSW,208,0.0,4.0,55,0.00,,,0.00,meteohub,2013-03-31 07:04:00,
2013-03-31 03:09:00,46.0,30.7,30.10,SSW,210,1.0,5.0,55,0.00,,,0.00,meteohub,2013-03-31 07:09:00,
2013-03-31 03:14:00,45.9,31.1,30.10,SSE,164,1.0,5.0,56,0.00,,,0.00,meteohub,2013-03-31 07:14:00,
2013-03-31 03:20:00,45.7,30.9,30.10,South,172,0.0,5.0,56,0.00,,,0.00,meteohub,2013-03-31 07:20:00,
2013-03-31 03:25:00,45.5,30.7,30.09,SW,224,1.0,5.0,56,0.00,,,0.00,meteohub,2013-03-31 07:25:00,
2013-03-31 03:30:00,45.3,30.6,30.10,SSW,212,0.0,5.0,56,0.00,,,0.00,meteohub,2013-03-31 07:30:00,
2013-03-31 03:36:00,45.1,30.4,30.09,SSW,212,0.0,2.0,56,0.00,,,0.00,meteohub,2013-03-31 07:36:00,
2013-03-31 03:41:00,45.0,30.6,30.10,SSW,202,0.0,2.0,57,0.00,,,0.00,meteohub,2013-03-31 07:41:00,
2013-03-31 03:46:00,44.8,30.6,30.10,SSW,197,0.0,2.0,57,0.00,,,0.00,meteohub,2013-03-31 07:46:00,
2013-03-31 03:52:00,44.6,30.7,30.10,SSW,197,0.0,1.0,58,0.00,,,0.00,meteohub,2013-03-31 07:52:00,
2013-03-31 03:57:00,44.4,30.6,30.09,SSW,195,0.0,1.0,58,0.00,,,0.00,meteohub,2013-03-31 07:57:00,
2013-03-31 04:02:00,44.2,30.4,30.09,SSW,195,0.0,1.0,58,0.00,,,0.00,meteohub,2013-03-31 08:02:00,
2013-03-31 04:07:00,44.1,30.7,30.09,SSW,195,0.0,1.0,59,0.00,,,0.00,meteohub,2013-03-31 08:07:00,
2013-03-31 04:12:00,43.7,30.7,30.09,SSW,196,0.0,1.0,60,0.00,,,0.00,meteohub,2013-03-31 08:12:00,
2013-03-31 04:17:00,43.3,30.4,30.10,SSW,195,0.0,0.0,60,0.00,,,0.00,meteohub,2013-03-31 08:17:00,
2013-03-31 04:22:00,43.2,30.6,30.10,SSW,195,0.0,0.0,61,0.00,,,0.00,meteohub,2013-03-31 08:22:00,
2013-03-31 04:27:00,42.8,30.7,30.10,SSW,195,0.0,0.0,62,0.00,,,0.00,meteohub,2013-03-31 08:27:00,
2013-03-31 04:32:00,42.4,30.7,30.09,SSW,196,0.0,0.0,63,0.00,,,0.00,meteohub,2013-03-31 08:32:00,
2013-03-31 04:37:00,42.3,30.6,30.09,SSW,196,0.0,0.0,63,0.00,,,0.00,meteohub,2013-03-31 08:37:00,
2013-03-31 04:43:00,42.1,30.7,30.10,SSW,195,0.0,0.0,64,0.00,,,0.00,meteohub,2013-03-31 08:43:00,
2013-03-31 04:48:00,42.1,31.1,30.10,SSW,195,0.0,0.0,65,0.00,,,0.00,meteohub,2013-03-31 08:48:00,
2013-03-31 04:53:00,42.4,31.5,30.09,South,185,1.0,0.0,65,0.00,,,0.00,meteohub,2013-03-31 08:53:00,
2013-03-31 04:58:00,43.0,31.6,30.10,South,174,1.0,0.0,64,0.00,,,0.00,meteohub,2013-03-31 08:58:00,
2013-03-31 05:03:00,43.2,31.5,30.09,SSW,204,0.0,2.0,63,0.00,,,0.00,meteohub,2013-03-31 09:03:00,
2013-03-31 05:09:00,43.3,32.0,30.09,SSW,196,0.0,2.0,64,0.00,,,0.00,meteohub,2013-03-31 09:09:00,
2013-03-31 05:14:00,43.3,32.0,30.09,SSW,198,0.0,2.0,64,0.00,,,0.00,meteohub,2013-03-31 09:14:00,
2013-03-31 05:20:00,43.3,32.0,30.09,SSE,167,1.0,2.0,64,0.00,,,0.00,meteohub,2013-03-31 09:20:00,
2013-03-31 05:25:00,43.3,32.0,30.09,South,188,0.0,2.0,64,0.00,,,0.00,meteohub,2013-03-31 09:25:00,
2013-03-31 05:30:00,43.2,32.2,30.09,South,188,0.0,2.0,65,0.00,,,0.00,meteohub,2013-03-31 09:30:00,
2013-03-31 05:35:00,43.0,32.0,30.09,SSE,160,0.0,2.0,65,0.00,,,0.00,meteohub,2013-03-31 09:35:00,
2013-03-31 05:41:00,42.6,32.0,30.09,South,186,0.0,2.0,66,0.00,,,0.00,meteohub,2013-03-31 09:41:00,
2013-03-31 05:46:00,42.4,31.8,30.09,South,185,0.0,2.0,66,0.00,,,0.00,meteohub,2013-03-31 09:46:00,
2013-03-31 05:51:00,42.3,32.2,30.09,South,186,0.0,2.0,67,0.00,,,0.00,meteohub,2013-03-31 09:51:00,
2013-03-31 05:56:00,42.1,32.0,30.09,South,186,0.0,2.0,67,0.00,,,0.00,meteohub,2013-03-31 09:56:00,
2013-03-31 06:02:00,41.5,31.8,30.09,South,186,0.0,2.0,68,0.00,,,0.00,meteohub,2013-03-31 10:02:00,
2013-03-31 06:07:00,41.4,32.0,30.09,South,186,0.0,2.0,69,0.00,,,0.00,meteohub,2013-03-31 10:07:00,
2013-03-31 06:12:00,41.0,32.0,30.09,South,186,0.0,2.0,70,0.00,,,0.00,meteohub,2013-03-31 10:12:00,
2013-03-31 06:17:00,40.6,31.6,30.09,South,186,0.0,2.0,70,0.00,,,0.00,meteohub,2013-03-31 10:17:00,
2013-03-31 06:22:00,40.3,31.3,30.09,South,186,0.0,0.0,70,0.00,,,0.00,meteohub,2013-03-31 10:22:00,
2013-03-31 06:27:00,39.9,31.3,30.09,South,186,0.0,0.0,71,0.00,,,0.00,meteohub,2013-03-31 10:27:00,
2013-03-31 06:32:00,40.3,32.4,30.09,South,186,0.0,0.0,73,0.00,,,0.00,meteohub,2013-03-31 10:32:00,
2013-03-31 06:37:00,40.5,32.5,30.09,South,186,0.0,0.0,73,0.00,,,0.00,meteohub,2013-03-31 10:37:00,
2013-03-31 06:43:00,40.6,32.7,30.09,South,186,0.0,0.0,73,0.00,,,0.00,meteohub,2013-03-31 10:43:00,
2013-03-31 06:48:00,40.8,33.3,30.09,South,169,0.0,0.0,74,0.00,,,0.00,meteohub,2013-03-31 10:48:00,
2013-03-31 06:53:00,41.2,33.4,30.09,South,169,0.0,0.0,74,0.00,,,0.00,meteohub,2013-03-31 10:53:00,
2013-03-31 06:58:00,41.2,33.4,30.09,South,169,0.0,1.0,74,0.00,,,0.00,meteohub,2013-03-31 10:58:00,
2013-03-31 07:04:00,41.0,33.4,30.09,South,169,0.0,1.0,74,0.00,,,0.00,meteohub,2013-03-31 11:04:00,
2013-03-31 07:09:00,41.2,33.4,30.09,South,169,0.0,1.0,74,0.00,,,0.00,meteohub,2013-03-31 11:09:00,
2013-03-31 07:15:00,41.2,33.4,30.09,South,169,0.0,1.0,74,0.00,,,0.00,meteohub,2013-03-31 11:15:00,
2013-03-31 07:20:00,41.2,33.4,30.09,South,169,0.0,1.0,74,0.00,,,0.00,meteohub,2013-03-31 11:20:00,
2013-03-31 07:25:00,41.5,33.8,30.09,South,169,0.0,1.0,74,0.00,,,0.00,meteohub,2013-03-31 11:25:00,
2013-03-31 07:30:00,41.7,34.3,30.09,South,169,0.0,1.0,75,0.00,,,0.00,meteohub,2013-03-31 11:30:00,
2013-03-31 07:36:00,42.1,34.7,30.09,South,169,0.0,1.0,75,0.00,,,0.00,meteohub,2013-03-31 11:36:00,
2013-03-31 07:41:00,42.3,34.9,30.09,South,169,0.0,0.0,75,0.00,,,0.00,meteohub,2013-03-31 11:41:00,
2013-03-31 07:46:00,42.6,35.2,30.09,South,169,0.0,0.0,75,0.00,,,0.00,meteohub,2013-03-31 11:46:00,
2013-03-31 07:52:00,43.2,36.1,30.09,South,170,0.0,0.0,76,0.00,,,0.00,meteohub,2013-03-31 11:52:00,
2013-03-31 07:57:00,43.3,36.0,30.09,South,172,0.0,0.0,75,0.00,,,0.00,meteohub,2013-03-31 11:57:00,
2013-03-31 08:02:00,43.5,36.1,30.09,South,186,0.0,0.0,75,0.00,,,0.00,meteohub,2013-03-31 12:02:00,
2013-03-31 08:08:00,43.9,36.1,30.09,South,187,0.0,0.0,74,0.00,,,0.00,meteohub,2013-03-31 12:08:00,
2013-03-31 08:13:00,44.2,36.1,30.09,South,187,0.0,1.0,73,0.00,,,0.00,meteohub,2013-03-31 12:13:00,
2013-03-31 08:18:00,44.2,35.8,30.09,South,187,0.0,1.0,72,0.00,,,0.00,meteohub,2013-03-31 12:18:00,
2013-03-31 08:23:00,44.8,36.3,30.09,South,187,0.0,1.0,72,0.00,,,0.00,meteohub,2013-03-31 12:23:00,
2013-03-31 08:28:00,45.0,36.5,30.09,South,188,0.0,1.0,72,0.00,,,0.00,meteohub,2013-03-31 12:28:00,
2013-03-31 08:35:00,45.1,36.3,30.09,South,187,0.0,1.0,71,0.00,,,0.00,meteohub,2013-03-31 12:35:00,
2013-03-31 08:40:00,45.7,35.4,30.09,SSE,166,1.0,1.0,67,0.00,,,0.00,meteohub,2013-03-31 12:40:00,
2013-03-31 08:45:00,46.2,35.4,30.09,South,181,0.0,1.0,66,0.00,,,0.00,meteohub,2013-03-31 12:45:00,
2013-03-31 08:51:00,46.6,35.4,30.09,South,187,0.0,1.0,65,0.00,,,0.00,meteohub,2013-03-31 12:51:00,
2013-03-31 08:56:00,47.1,35.6,30.09,South,186,0.0,1.0,64,0.00,,,0.00,meteohub,2013-03-31 12:56:00,
2013-03-31 09:02:00,47.7,36.1,30.09,SSE,163,0.0,1.0,64,0.00,,,0.00,meteohub,2013-03-31 13:02:00,
2013-03-31 09:07:00,47.7,36.5,30.09,SSW,193,0.0,1.0,65,0.00,,,0.00,meteohub,2013-03-31 13:07:00,
2013-03-31 09:12:00,47.8,37.0,30.09,South,179,0.0,1.0,66,0.00,,,0.00,meteohub,2013-03-31 13:12:00,
2013-03-31 09:17:00,48.0,37.9,30.09,SSW,193,0.0,1.0,68,0.00,,,0.00,meteohub,2013-03-31 13:17:00,
2013-03-31 09:22:00,47.7,37.6,30.09,South,183,1.0,2.0,68,0.00,,,0.00,meteohub,2013-03-31 13:22:00,
2013-03-31 09:28:00,47.7,37.6,30.09,South,184,2.0,2.0,68,0.00,,,0.00,meteohub,2013-03-31 13:28:00,
2013-03-31 09:33:00,47.7,37.9,30.08,South,184,1.0,2.0,69,0.00,,,0.00,meteohub,2013-03-31 13:33:00,
2013-03-31 09:38:00,47.8,38.5,30.08,South,172,1.0,2.0,70,0.00,,,0.00,meteohub,2013-03-31 13:38:00,
2013-03-31 09:43:00,47.8,38.1,30.08,South,176,2.0,2.0,69,0.00,,,0.00,meteohub,2013-03-31 13:43:00,
2013-03-31 09:49:00,47.8,38.5,30.08,South,176,2.0,2.0,70,0.00,,,0.00,meteohub,2013-03-31 13:49:00,
2013-03-31 09:54:00,48.0,38.7,30.07,South,188,1.0,2.0,70,0.00,,,0.00,meteohub,2013-03-31 13:54:00,
2013-03-31 09:59:00,48.4,38.7,30.08,SSE,167,0.0,4.0,69,0.00,,,0.00,meteohub,2013-03-31 13:59:00,
2013-03-31 10:04:00,48.7,38.3,30.08,SSE,150,3.0,4.0,67,0.00,,,0.00,meteohub,2013-03-31 14:04:00,
2013-03-31 10:09:00,48.4,37.9,30.08,SSE,150,2.0,4.0,67,0.00,,,0.00,meteohub,2013-03-31 14:09:00,
2013-03-31 10:14:00,48.4,37.6,30.08,South,169,2.0,4.0,66,0.00,,,0.00,meteohub,2013-03-31 14:14:00,
2013-03-31 10:20:00,48.6,38.1,30.08,South,170,1.0,4.0,67,0.00,,,0.00,meteohub,2013-03-31 14:20:00,
2013-03-31 10:25:00,48.9,37.2,30.08,SSE,160,2.0,4.0,64,0.00,,,0.00,meteohub,2013-03-31 14:25:00,
2013-03-31 10:30:00,49.1,37.4,30.08,SSE,166,1.0,7.0,64,0.00,,,0.00,meteohub,2013-03-31 14:30:00,
2013-03-31 10:36:00,48.7,37.9,30.08,SSE,164,3.0,7.0,66,0.00,,,0.00,meteohub,2013-03-31 14:36:00,
2013-03-31 10:41:00,48.4,38.3,30.07,SE,124,4.0,7.0,68,0.00,,,0.00,meteohub,2013-03-31 14:41:00,
2013-03-31 10:47:00,48.4,39.0,30.07,South,170,1.0,7.0,70,0.00,,,0.00,meteohub,2013-03-31 14:47:00,
2013-03-31 10:52:00,48.6,39.9,30.07,South,188,1.0,7.0,72,0.00,,,0.00,meteohub,2013-03-31 14:52:00,
2013-03-31 10:57:00,48.4,40.5,30.07,South,187,3.0,7.0,74,0.00,,,0.00,meteohub,2013-03-31 14:57:00,
2013-03-31 11:02:00,48.6,40.6,30.07,South,173,3.0,7.0,74,0.00,,,0.00,meteohub,2013-03-31 15:02:00,
2013-03-31 11:08:00,48.6,41.4,30.07,ENE,75,4.0,6.0,76,0.00,,,0.00,meteohub,2013-03-31 15:08:00,
2013-03-31 11:13:00,48.7,41.5,30.06,South,176,2.0,6.0,76,0.00,,,0.00,meteohub,2013-03-31 15:13:00,
2013-03-31 11:18:00,48.9,41.7,30.06,SSE,158,4.0,6.0,76,0.00,,,0.00,meteohub,2013-03-31 15:18:00,
2013-03-31 11:23:00,49.3,42.1,30.06,South,177,1.0,6.0,76,0.00,,,0.00,meteohub,2013-03-31 15:23:00,
2013-03-31 11:28:00,49.8,41.5,30.06,ENE,62,5.0,6.0,73,0.00,,,0.00,meteohub,2013-03-31 15:28:00,
2013-03-31 11:33:00,50.2,41.9,30.05,South,188,0.0,6.0,73,0.00,,,0.00,meteohub,2013-03-31 15:33:00,
2013-03-31 11:39:00,50.4,41.7,30.05,ENE,77,5.0,6.0,72,0.00,,,0.00,meteohub,2013-03-31 15:39:00,
2013-03-31 11:44:00,50.4,42.1,30.05,South,186,0.0,6.0,73,0.00,,,0.00,meteohub,2013-03-31 15:44:00,
2013-03-31 11:49:00,50.4,41.7,30.04,South,184,1.0,6.0,72,0.00,,,0.00,meteohub,2013-03-31 15:49:00,
2013-03-31 11:54:00,50.4,41.4,30.04,South,172,2.0,6.0,71,0.00,,,0.00,meteohub,2013-03-31 15:54:00,
2013-03-31 12:00:00,50.4,42.1,30.04,South,187,1.0,6.0,73,0.00,,,0.00,meteohub,2013-03-31 16:00:00,
2013-03-31 12:05:00,50.5,42.3,30.04,SSE,153,2.0,6.0,73,0.00,,,0.00,meteohub,2013-03-31 16:05:00,
2013-03-31 12:11:00,50.4,42.1,30.04,South,170,3.0,6.0,73,0.00,,,0.00,meteohub,2013-03-31 16:11:00,
2013-03-31 12:16:00,50.2,42.3,30.03,East,84,2.0,6.0,74,0.00,,,0.00,meteohub,2013-03-31 16:16:00,
2013-03-31 12:21:00,50.4,42.4,30.03,SE,131,2.0,6.0,74,0.00,,,0.00,meteohub,2013-03-31 16:21:00,
2013-03-31 12:26:00,50.7,42.4,30.03,SSE,152,2.0,8.0,73,0.00,,,0.00,meteohub,2013-03-31 16:26:00,
2013-03-31 12:31:00,51.1,42.1,30.02,South,171,3.0,8.0,71,0.00,,,0.00,meteohub,2013-03-31 16:31:00,
2013-03-31 12:37:00,51.3,42.3,30.02,ENE,63,3.0,8.0,71,0.00,,,0.00,meteohub,2013-03-31 16:37:00,
2013-03-31 12:42:00,51.4,42.4,30.02,SW,217,1.0,8.0,71,0.00,,,0.00,meteohub,2013-03-31 16:42:00,
2013-03-31 12:47:00,51.4,42.4,30.01,South,184,2.0,8.0,71,0.00,,,0.00,meteohub,2013-03-31 16:47:00,
2013-03-31 12:52:00,51.6,42.4,30.01,SSE,150,2.0,8.0,71,0.00,,,0.00,meteohub,2013-03-31 16:52:00,
2013-03-31 12:58:00,51.6,42.4,30.00,SSE,159,2.0,8.0,71,0.00,,,0.00,meteohub,2013-03-31 16:58:00,
2013-03-31 13:03:00,52.2,42.3,30.00,South,171,1.0,8.0,69,0.00,,,0.00,meteohub,2013-03-31 17:03:00,
2013-03-31 13:08:00,52.3,42.1,30.00,SE,145,4.0,8.0,68,0.00,,,0.00,meteohub,2013-03-31 17:08:00,
2013-03-31 13:13:00,52.2,41.9,30.00,SSE,148,3.0,9.0,68,0.00,,,0.00,meteohub,2013-03-31 17:13:00,
2013-03-31 13:18:00,52.2,41.5,29.99,South,171,2.0,9.0,67,0.00,,,0.00,meteohub,2013-03-31 17:18:00,
2013-03-31 13:23:00,52.3,39.7,29.99,South,169,1.0,9.0,62,0.00,,,0.00,meteohub,2013-03-31 17:23:00,
2013-03-31 13:29:00,52.3,39.7,29.99,SE,137,3.0,9.0,62,0.00,,,0.00,meteohub,2013-03-31 17:29:00,
2013-03-31 13:34:00,52.0,39.7,29.99,SSE,166,2.0,9.0,63,0.00,,,0.00,meteohub,2013-03-31 17:34:00,
2013-03-31 13:40:00,51.8,39.6,29.99,South,186,4.0,9.0,63,0.00,,,0.00,meteohub,2013-03-31 17:40:00,
2013-03-31 13:45:00,51.4,39.2,29.99,South,171,2.0,9.0,63,0.00,,,0.00,meteohub,2013-03-31 17:45:00,
2013-03-31 13:50:00,51.4,39.7,29.98,South,174,5.0,9.0,64,0.00,,,0.00,meteohub,2013-03-31 17:50:00,
2013-03-31 13:56:00,51.4,40.1,29.98,South,177,3.0,9.0,65,0.00,,,0.00,meteohub,2013-03-31 17:56:00,
2013-03-31 14:01:00,51.1,40.1,29.97,South,174,1.0,9.0,66,0.00,,,0.00,meteohub,2013-03-31 18:01:00,
2013-03-31 14:07:00,50.7,40.5,29.97,SSE,160,1.0,8.0,68,0.00,,,0.00,meteohub,2013-03-31 18:07:00,
2013-03-31 14:12:00,50.5,40.8,29.97,SSE,166,2.0,8.0,69,0.00,,,0.00,meteohub,2013-03-31 18:12:00,
2013-03-31 14:17:00,50.4,40.6,29.97,South,190,4.0,8.0,69,0.00,,,0.00,meteohub,2013-03-31 18:17:00,
2013-03-31 14:22:00,50.4,40.6,29.96,NNW,332,7.0,8.0,69,0.00,,,0.00,meteohub,2013-03-31 18:22:00,
2013-03-31 14:27:00,50.4,41.0,29.96,South,191,1.0,8.0,70,0.00,,,0.00,meteohub,2013-03-31 18:27:00,
2013-03-31 14:32:00,50.0,40.6,29.95,South,169,2.0,9.0,70,0.00,,,0.00,meteohub,2013-03-31 18:32:00,
2013-03-31 14:38:00,49.8,40.8,29.95,South,173,2.0,9.0,71,0.00,,,0.00,meteohub,2013-03-31 18:38:00,
2013-03-31 14:43:00,49.6,40.6,29.95,ESE,105,4.0,9.0,71,0.00,,,0.00,meteohub,2013-03-31 18:43:00,
2013-03-31 14:48:00,49.6,40.6,29.95,South,176,2.0,9.0,71,0.00,,,0.00,meteohub,2013-03-31 18:48:00,
2013-03-31 14:54:00,49.8,40.8,29.94,SSE,163,2.0,7.0,71,0.00,,,0.00,meteohub,2013-03-31 18:54:00,
2013-03-31 14:59:00,49.8,40.8,29.94,SE,137,6.0,7.0,71,0.00,,,0.00,meteohub,2013-03-31 18:59:00,
2013-03-31 15:04:00,49.8,40.8,29.93,SSE,148,3.0,7.0,71,0.00,,,0.00,meteohub,2013-03-31 19:04:00,
2013-03-31 15:09:00,49.8,40.8,29.93,South,188,4.0,7.0,71,0.00,,,0.00,meteohub,2013-03-31 19:09:00,
2013-03-31 15:15:00,49.8,40.8,29.92,East,91,3.0,7.0,71,0.00,,,0.00,meteohub,2013-03-31 19:15:00,
2013-03-31 15:20:00,49.6,41.0,29.92,South,180,4.0,8.0,72,0.00,,,0.00,meteohub,2013-03-31 19:20:00,
2013-03-31 15:25:00,49.6,40.6,29.92,South,186,1.0,8.0,71,0.00,,,0.00,meteohub,2013-03-31 19:25:00,
2013-03-31 15:30:00,49.6,40.3,29.92,South,180,2.0,8.0,70,0.00,,,0.00,meteohub,2013-03-31 19:30:00,
2013-03-31 15:36:00,50.0,40.6,29.91,South,176,4.0,8.0,70,0.00,,,0.00,meteohub,2013-03-31 19:36:00,
2013-03-31 15:41:00,50.4,40.6,29.91,East,96,4.0,8.0,69,0.00,,,0.00,meteohub,2013-03-31 19:41:00,
2013-03-31 15:46:00,50.5,39.9,29.91,SSE,149,7.0,8.0,67,0.00,,,0.00,meteohub,2013-03-31 19:46:00,
2013-03-31 15:52:00,50.5,39.6,29.90,South,174,2.0,8.0,66,0.00,,,0.00,meteohub,2013-03-31 19:52:00,
2013-03-31 15:57:00,50.5,39.6,29.90,SSE,166,2.0,8.0,66,0.00,,,0.00,meteohub,2013-03-31 19:57:00,
2013-03-31 16:02:00,50.4,39.4,29.90,SSE,158,2.0,11.0,66,0.00,,,0.00,meteohub,2013-03-31 20:02:00,
2013-03-31 16:07:00,50.2,39.6,29.90,South,187,4.0,11.0,67,0.00,,,0.00,meteohub,2013-03-31 20:07:00,
2013-03-31 16:12:00,50.0,39.6,29.90,East,96,5.0,11.0,67,0.00,,,0.00,meteohub,2013-03-31 20:12:00,
2013-03-31 16:17:00,49.8,39.7,29.90,South,174,3.0,11.0,68,0.00,,,0.00,meteohub,2013-03-31 20:17:00,
2013-03-31 16:22:00,49.6,39.6,29.90,SE,143,7.0,11.0,68,0.00,,,0.00,meteohub,2013-03-31 20:22:00,
2013-03-31 16:27:00,49.6,39.6,29.89,SSE,155,3.0,10.0,68,0.00,,,0.00,meteohub,2013-03-31 20:27:00,
2013-03-31 16:32:00,49.6,39.6,29.89,SSE,163,1.0,10.0,68,0.00,,,0.00,meteohub,2013-03-31 20:32:00,
2013-03-31 16:37:00,49.6,39.9,29.89,SSE,163,4.0,10.0,69,0.00,,,0.00,meteohub,2013-03-31 20:37:00,
2013-03-31 16:42:00,49.5,40.1,29.89,SE,135,1.0,10.0,70,0.00,,,0.00,meteohub,2013-03-31 20:42:00,
2013-03-31 16:48:00,49.3,40.3,29.89,South,184,0.0,9.0,71,0.00,,,0.00,meteohub,2013-03-31 20:48:00,
2013-03-31 16:53:00,49.6,39.9,29.88,South,191,3.0,9.0,69,0.00,,,0.00,meteohub,2013-03-31 20:53:00,
2013-03-31 16:58:00,50.0,40.6,29.88,South,176,2.0,9.0,70,0.00,,,0.00,meteohub,2013-03-31 20:58:00,
2013-03-31 17:03:00,50.2,40.5,29.88,SSW,193,3.0,9.0,69,0.00,,,0.00,meteohub,2013-03-31 21:03:00,
2013-03-31 17:08:00,50.2,40.5,29.88,SSE,162,3.0,8.0,69,0.00,,,0.00,meteohub,2013-03-31 21:08:00,
2013-03-31 17:14:00,50.2,40.5,29.87,South,174,1.0,8.0,69,0.00,,,0.00,meteohub,2013-03-31 21:14:00,
2013-03-31 17:19:00,50.2,40.8,29.87,SSW,205,5.0,8.0,70,0.00,,,0.00,meteohub,2013-03-31 21:19:00,
2013-03-31 17:24:00,49.8,41.2,29.88,SSW,195,6.0,8.0,72,0.00,,,0.00,meteohub,2013-03-31 21:24:00,
2013-03-31 17:30:00,49.5,41.5,29.87,SSE,162,3.0,8.0,74,0.00,,,0.00,meteohub,2013-03-31 21:30:00,
2013-03-31 17:35:00,49.3,41.7,29.87,ESE,119,5.0,15.0,75,0.00,,,0.00,meteohub,2013-03-31 21:35:00,
2013-03-31 17:40:00,48.9,42.1,29.86,SSE,158,2.0,15.0,77,0.00,,,0.00,meteohub,2013-03-31 21:40:00,
2013-03-31 17:45:00,48.9,42.1,29.85,South,174,5.0,15.0,77,0.00,,,0.00,meteohub,2013-03-31 21:45:00,
2013-03-31 17:51:00,48.7,41.9,29.86,South,186,1.0,15.0,77,0.00,,,0.00,meteohub,2013-03-31 21:51:00,
2013-03-31 17:56:00,48.7,41.9,29.86,SSE,162,6.0,6.0,77,0.00,,,0.00,meteohub,2013-03-31 21:56:00,
2013-03-31 18:02:00,48.7,41.9,29.85,South,177,3.0,6.0,77,0.00,,,0.00,meteohub,2013-03-31 22:02:00,
2013-03-31 18:07:00,48.6,41.7,29.85,South,191,2.0,6.0,77,0.00,,,0.00,meteohub,2013-03-31 22:07:00,
2013-03-31 18:12:00,48.6,42.1,29.85,SSE,159,2.0,6.0,78,0.00,,,0.00,meteohub,2013-03-31 22:12:00,
2013-03-31 18:17:00,48.4,41.9,29.84,SSE,147,2.0,6.0,78,0.00,,,0.00,meteohub,2013-03-31 22:17:00,
2013-03-31 18:22:00,48.0,42.1,29.84,South,176,3.0,6.0,80,0.00,,,0.00,meteohub,2013-03-31 22:22:00,
2013-03-31 18:27:00,47.8,42.3,29.83,East,83,4.0,8.0,81,0.00,,,0.00,meteohub,2013-03-31 22:27:00,
2013-03-31 18:32:00,47.7,42.4,29.83,South,184,1.0,8.0,82,0.00,,,0.00,meteohub,2013-03-31 22:32:00,
2013-03-31 18:37:00,47.5,42.6,29.82,South,178,2.0,8.0,83,0.00,,,0.00,meteohub,2013-03-31 22:37:00,
2013-03-31 18:43:00,47.3,42.4,29.82,South,191,1.0,8.0,83,0.00,,,0.00,meteohub,2013-03-31 22:43:00,
2013-03-31 18:48:00,47.1,42.6,29.81,South,172,2.0,8.0,84,0.00,,,0.00,meteohub,2013-03-31 22:48:00,
2013-03-31 18:53:00,46.9,42.4,29.81,SSE,166,4.0,8.0,84,0.00,,,0.00,meteohub,2013-03-31 22:53:00,
2013-03-31 18:58:00,46.9,42.4,29.80,East,91,4.0,8.0,84,0.00,,,0.00,meteohub,2013-03-31 22:58:00,
2013-03-31 19:03:00,46.9,42.6,29.80,SSE,164,3.0,10.0,85,0.00,,,0.00,meteohub,2013-03-31 23:03:00,
2013-03-31 19:09:00,46.8,42.8,29.80,SE,131,3.0,10.0,86,0.00,,,0.00,meteohub,2013-03-31 23:09:00,
2013-03-31 19:14:00,46.8,42.8,29.79,ENE,68,6.0,10.0,86,0.00,,,0.00,meteohub,2013-03-31 23:14:00,
2013-03-31 19:20:00,46.8,43.2,29.78,South,178,2.0,10.0,87,0.00,,,0.02,meteohub,2013-03-31 23:20:00,
2013-03-31 19:25:00,46.8,43.2,29.78,SSE,166,2.0,10.0,87,0.02,,,0.02,meteohub,2013-03-31 23:25:00,
2013-03-31 19:31:00,46.9,43.3,29.77,SSW,208,4.0,8.0,87,0.02,,,0.02,meteohub,2013-03-31 23:31:00,
2013-03-31 19:36:00,46.9,43.0,29.77,SSE,165,2.0,8.0,86,0.02,,,0.02,meteohub,2013-03-31 23:36:00,
2013-03-31 19:41:00,46.9,43.0,29.77,South,179,3.0,8.0,86,0.02,,,0.02,meteohub,2013-03-31 23:41:00,
2013-03-31 19:47:00,46.8,43.2,29.76,South,188,8.0,8.0,87,0.02,,,0.02,meteohub,2013-03-31 23:47:00,
2013-03-31 19:52:00,46.4,43.0,29.76,SSW,210,3.0,10.0,88,0.02,,,0.02,meteohub,2013-03-31 23:52:00,
2013-03-31 19:57:00,46.2,43.2,29.76,SSW,195,5.0,10.0,89,0.02,,,0.02,meteohub,2013-03-31 23:57:00,
2013-03-31 20:02:00,46.0,43.3,29.74,SW,215,4.0,10.0,90,0.02,,,0.04,meteohub,2013-04-01 00:02:00,
2013-03-31 20:07:00,46.0,43.3,29.75,South,176,4.0,10.0,90,0.05,,,0.04,meteohub,2013-04-01 00:07:00,
2013-03-31 20:12:00,46.0,43.3,29.74,ENE,75,5.0,10.0,90,0.05,,,0.04,meteohub,2013-04-01 00:12:00,
2013-03-31 20:17:00,46.0,43.5,29.75,South,186,5.0,10.0,91,0.05,,,0.04,meteohub,2013-04-01 00:17:00,
2013-03-31 20:22:00,46.0,43.5,29.74,South,170,4.0,10.0,91,0.05,,,0.06,meteohub,2013-04-01 00:22:00,
2013-03-31 20:28:00,45.9,43.3,29.74,SSE,149,2.0,10.0,91,0.05,,,0.06,meteohub,2013-04-01 00:28:00,
2013-03-31 20:33:00,45.9,43.7,29.74,South,180,2.0,11.0,92,0.04,,,0.06,meteohub,2013-04-01 00:33:00,
2013-03-31 20:38:00,45.9,43.7,29.73,South,181,4.0,11.0,92,0.04,,,0.06,meteohub,2013-04-01 00:38:00,
2013-03-31 20:44:00,45.9,43.7,29.73,South,180,4.0,11.0,92,0.04,,,0.07,meteohub,2013-04-01 00:44:00,
2013-03-31 20:49:00,45.9,43.7,29.73,South,184,5.0,11.0,92,0.04,,,0.07,meteohub,2013-04-01 00:49:00,
2013-03-31 20:54:00,46.0,43.9,29.73,SSW,203,2.0,10.0,92,0.05,,,0.07,meteohub,2013-04-01 00:54:00,
2013-03-31 20:59:00,46.0,43.9,29.72,SSE,167,3.0,10.0,92,0.05,,,0.07,meteohub,2013-04-01 00:59:00,
2013-03-31 21:04:00,46.0,44.1,29.73,SSW,201,6.0,10.0,93,0.05,,,0.09,meteohub,2013-04-01 01:04:00,
2013-03-31 21:10:00,46.0,44.1,29.72,South,191,3.0,10.0,93,0.04,,,0.09,meteohub,2013-04-01 01:10:00,
2013-03-31 21:15:00,46.0,44.1,29.72,South,174,4.0,9.0,93,0.04,,,0.09,meteohub,2013-04-01 01:15:00,
2013-03-31 21:20:00,46.0,44.1,29.71,SSW,200,2.0,9.0,93,0.04,,,0.09,meteohub,2013-04-01 01:20:00,
2013-03-31 21:25:00,46.0,44.1,29.72,South,191,2.0,9.0,93,0.04,,,0.10,meteohub,2013-04-01 01:25:00,
2013-03-31 21:30:00,46.0,44.1,29.72,South,184,2.0,9.0,93,0.04,,,0.10,meteohub,2013-04-01 01:30:00,
2013-03-31 21:36:00,46.0,44.1,29.71,South,174,1.0,9.0,93,0.03,,,0.10,meteohub,2013-04-01 01:36:00,
2013-03-31 21:41:00,46.0,44.1,29.70,SSW,194,1.0,9.0,93,0.03,,,0.11,meteohub,2013-04-01 01:41:00,
2013-03-31 21:46:00,46.2,44.6,29.69,South,174,1.0,7.0,94,0.04,,,0.11,meteohub,2013-04-01 01:46:00,
2013-03-31 21:52:00,46.0,44.1,29.69,SSW,208,0.0,7.0,93,0.04,,,0.11,meteohub,2013-04-01 01:52:00,
2013-03-31 21:57:00,46.0,44.4,29.69,South,175,2.0,7.0,94,0.03,,,0.11,meteohub,2013-04-01 01:57:00,
2013-03-31 22:02:00,46.0,44.1,29.69,SSE,160,3.0,7.0,93,0.03,,,0.11,meteohub,2013-04-01 02:02:00,
2013-03-31 22:07:00,46.0,44.4,29.69,SSW,196,1.0,7.0,94,0.02,,,0.11,meteohub,2013-04-01 02:07:00,
2013-03-31 22:13:00,46.0,44.4,29.68,South,179,2.0,7.0,94,0.02,,,0.11,meteohub,2013-04-01 02:13:00,
2013-03-31 22:18:00,45.9,44.2,29.68,SSW,193,4.0,7.0,94,0.01,,,0.11,meteohub,2013-04-01 02:18:00,
2013-03-31 22:23:00,45.9,44.2,29.68,South,187,0.0,7.0,94,0.01,,,0.11,meteohub,2013-04-01 02:23:00,
2013-03-31 22:29:00,46.0,44.4,29.67,South,176,2.0,5.0,94,0.01,,,0.11,meteohub,2013-04-01 02:29:00,
2013-03-31 22:34:00,46.0,44.4,29.67,SSW,193,0.0,5.0,94,0.01,,,0.11,meteohub,2013-04-01 02:34:00,
2013-03-31 22:39:00,46.0,44.4,29.67,South,186,1.0,5.0,94,0.01,,,0.11,meteohub,2013-04-01 02:39:00,
2013-03-31 22:45:00,46.0,44.4,29.67,South,191,0.0,4.0,94,0.00,,,0.11,meteohub,2013-04-01 02:45:00,
2013-03-31 22:50:00,46.2,44.6,29.67,South,172,0.0,4.0,94,0.00,,,0.11,meteohub,2013-04-01 02:50:00,
2013-03-31 22:55:00,46.2,44.6,29.67,South,177,0.0,4.0,94,0.00,,,0.11,meteohub,2013-04-01 02:55:00,
2013-03-31 23:00:00,46.2,44.6,29.66,South,178,0.0,4.0,94,0.00,,,0.11,meteohub,2013-04-01 03:00:00,
2013-03-31 23:05:00,46.2,44.6,29.66,South,187,0.0,2.0,94,0.00,,,0.11,meteohub,2013-04-01 03:05:00,
2013-03-31 23:11:00,46.2,44.6,29.66,South,186,0.0,2.0,94,0.00,,,0.11,meteohub,2013-04-01 03:11:00,
2013-03-31 23:16:00,46.2,44.6,29.65,South,186,0.0,1.0,94,0.00,,,0.11,meteohub,2013-04-01 03:16:00,
2013-03-31 23:21:00,46.2,44.8,29.65,South,185,0.0,1.0,95,0.00,,,0.11,meteohub,2013-04-01 03:21:00,
2013-03-31 23:26:00,46.2,44.8,29.65,South,186,0.0,0.0,95,0.00,,,0.11,meteohub,2013-04-01 03:26:00,
2013-03-31 23:32:00,46.2,44.8,29.65,South,186,0.0,0.0,95,0.00,,,0.11,meteohub,2013-04-01 03:32:00,
2013-03-31 23:37:00,46.2,44.8,29.65,South,186,0.0,0.0,95,0.00,,,0.11,meteohub,2013-04-01 03:37:00,
2013-03-31 23:42:00,46.4,45.0,29.65,South,191,0.0,0.0,95,0.00,,,0.11,meteohub,2013-04-01 03:42:00,
2013-03-31 23:47:00,46.6,45.1,29.66,SSW,194,0.0,1.0,95,0.00,,,0.11,meteohub,2013-04-01 03:47:00,
2013-03-31 23:52:00,46.4,45.0,29.66,South,191,0.0,1.0,95,0.00,,,0.11,meteohub,2013-04-01 03:52:00,
2013-03-31 23:57:00,46.4,45.0,29.65,South,191,0.0,1.0,95,0.00,,,0.11,meteohub,2013-04-01 03:57:00,